sensor_id;sensor_type;location;lat;lon;timestamp;temperature;humidity
46336;DHT22;31365;48.858;8.530;2022-10-03T17:09:43;14.30;99.90
46336;DHT22;31365;48.858;8.530;2022-10-03T17:12:16;13.80;99.90
46336;DHT22;31365;48.858;8.530;2022-10-03T17:14:47;13.50;99.90
46336;DHT22;31365;48.858;8.530;2022-10-03T17:17:26;13.40;99.90
46336;DHT22;31365;48.858;8.530;2022-10-03T17:20:01;13.20;99.90
46336;DHT22;31365;48.858;8.530;2022-10-03T17:22:36;13.20;99.90
46336;DHT22;31365;48.858;8.530;2022-10-03T17:25:33;13.10;99.90
46336;DHT22;31365;48.858;8.530;2022-10-03T17:28:13;13.00;99.90
46336;DHT22;31365;48.858;8.530;2022-10-03T17:30:58;12.90;99.90
46336;DHT22;31365;48.858;8.530;2022-10-03T17:33:36;12.80;99.90
46336;DHT22;31365;48.858;8.530;2022-10-03T17:36:29;12.70;99.90
46336;DHT22;31365;48.858;8.530;2022-10-03T17:39:15;12.60;99.90
46336;DHT22;31365;48.858;8.530;2022-10-03T17:42:03;12.50;99.90
46336;DHT22;31365;48.858;8.530;2022-10-03T17:44:54;12.40;99.90
46336;DHT22;31365;48.858;8.530;2022-10-03T17:47:32;12.30;99.90
46336;DHT22;31365;48.858;8.530;2022-10-03T17:50:15;12.20;99.90
46336;DHT22;31365;48.858;8.530;2022-10-03T17:52:48;12.20;99.90
46336;DHT22;31365;48.858;8.530;2022-10-03T17:55:22;12.10;99.90
46336;DHT22;31365;48.858;8.530;2022-10-03T17:57:57;12.00;99.90
46336;DHT22;31365;48.858;8.530;2022-10-03T18:00:34;11.90;99.90
46336;DHT22;31365;48.858;8.530;2022-10-03T18:03:24;11.90;99.90
46336;DHT22;31365;48.858;8.530;2022-10-03T18:05:58;11.80;99.90
46336;DHT22;31365;48.858;8.530;2022-10-03T18:08:33;11.80;99.90
46336;DHT22;31365;48.858;8.530;2022-10-03T18:11:07;11.70;99.90
46336;DHT22;31365;48.858;8.530;2022-10-03T18:13:41;11.60;99.90
46336;DHT22;31365;48.858;8.530;2022-10-03T18:16:19;11.70;99.90
46336;DHT22;31365;48.858;8.530;2022-10-03T18:19:08;11.60;99.90
46336;DHT22;31365;48.858;8.530;2022-10-03T18:21:59;11.60;99.90
46336;DHT22;31365;48.858;8.530;2022-10-03T18:24:51;11.60;99.90
46336;DHT22;31365;48.858;8.530;2022-10-03T18:27:52;11.50;99.90
46336;DHT22;31365;48.858;8.530;2022-10-03T18:30:44;11.50;99.90
46336;DHT22;31365;48.858;8.530;2022-10-03T18:33:22;11.50;99.90
46336;DHT22;31365;48.858;8.530;2022-10-03T18:35:56;11.50;99.90
46336;DHT22;31365;48.858;8.530;2022-10-03T18:38:30;11.50;99.90
46336;DHT22;31365;48.858;8.530;2022-10-03T18:41:12;11.50;99.90
46336;DHT22;31365;48.858;8.530;2022-10-03T18:43:44;11.40;99.90
46336;DHT22;31365;48.858;8.530;2022-10-03T18:46:22;11.40;99.90
46336;DHT22;31365;48.858;8.530;2022-10-03T18:48:58;11.40;99.90
46336;DHT22;31365;48.858;8.530;2022-10-03T18:51:50;11.40;99.90
46336;DHT22;31365;48.858;8.530;2022-10-03T18:54:33;11.40;99.90
46336;DHT22;31365;48.858;8.530;2022-10-03T18:57:17;11.30;99.90
46336;DHT22;31365;48.858;8.530;2022-10-03T18:59:53;11.30;99.90
46336;DHT22;31365;48.858;8.530;2022-10-03T19:02:34;11.20;99.90
46336;DHT22;31365;48.858;8.530;2022-10-03T19:05:19;11.30;99.90
46336;DHT22;31365;48.858;8.530;2022-10-03T19:07:53;11.10;99.90
46336;DHT22;31365;48.858;8.530;2022-10-03T19:10:38;11.10;99.90
46336;DHT22;31365;48.858;8.530;2022-10-03T19:13:17;11.00;99.90
46336;DHT22;31365;48.858;8.530;2022-10-03T19:16:07;11.00;99.90
46336;DHT22;31365;48.858;8.530;2022-10-03T19:18:51;10.90;99.90
46336;DHT22;31365;48.858;8.530;2022-10-03T19:21:34;10.90;99.90
46336;DHT22;31365;48.858;8.530;2022-10-03T19:24:08;10.90;99.90
46336;DHT22;31365;48.858;8.530;2022-10-03T19:26:44;10.90;99.90
46336;DHT22;31365;48.858;8.530;2022-10-03T19:29:16;10.90;99.90
46336;DHT22;31365;48.858;8.530;2022-10-03T19:31:59;10.90;99.90
46336;DHT22;31365;48.858;8.530;2022-10-03T19:34:35;10.80;99.90
46336;DHT22;31365;48.858;8.530;2022-10-03T19:37:10;11.00;99.90
46336;DHT22;31365;48.858;8.530;2022-10-03T19:39:43;10.80;99.90
46336;DHT22;31365;48.858;8.530;2022-10-03T19:42:24;10.80;99.90
46336;DHT22;31365;48.858;8.530;2022-10-03T19:44:59;10.80;99.90
46336;DHT22;31365;48.858;8.530;2022-10-03T19:47:29;10.70;99.90
46336;DHT22;31365;48.858;8.530;2022-10-03T19:50:06;10.70;99.90
46336;DHT22;31365;48.858;8.530;2022-10-03T19:52:44;10.70;99.90
46336;DHT22;31365;48.858;8.530;2022-10-03T19:55:16;10.70;99.90
46336;DHT22;31365;48.858;8.530;2022-10-03T19:57:50;10.70;99.90
46336;DHT22;31365;48.858;8.530;2022-10-03T20:00:26;10.60;99.90
46336;DHT22;31365;48.858;8.530;2022-10-03T20:03:09;10.60;99.90
46336;DHT22;31365;48.858;8.530;2022-10-03T20:05:52;10.60;99.90
46336;DHT22;31365;48.858;8.530;2022-10-03T20:53:30;10.20;99.90
46336;DHT22;31365;48.858;8.530;2022-10-03T20:56:01;10.20;99.90
46336;DHT22;31365;48.858;8.530;2022-10-03T20:58:38;10.20;99.90
46336;DHT22;31365;48.858;8.530;2022-10-03T21:01:14;10.20;99.90
46336;DHT22;31365;48.858;8.530;2022-10-03T21:04:02;10.20;99.90
46336;DHT22;31365;48.858;8.530;2022-10-03T21:06:51;10.20;99.90
46336;DHT22;31365;48.858;8.530;2022-10-03T21:09:35;10.20;99.90
46336;DHT22;31365;48.858;8.530;2022-10-03T21:12:15;10.30;99.90
46336;DHT22;31365;48.858;8.530;2022-10-03T21:14:50;10.30;99.90
46336;DHT22;31365;48.858;8.530;2022-10-03T21:17:25;10.20;99.90
46336;DHT22;31365;48.858;8.530;2022-10-03T21:19:58;10.20;99.90
46336;DHT22;31365;48.858;8.530;2022-10-03T21:22:35;10.20;99.90
46336;DHT22;31365;48.858;8.530;2022-10-03T21:25:08;10.20;99.90
46336;DHT22;31365;48.858;8.530;2022-10-03T21:27:49;10.20;99.90
46336;DHT22;31365;48.858;8.530;2022-10-03T21:30:28;10.10;99.90
46336;DHT22;31365;48.858;8.530;2022-10-03T21:33:14;10.10;99.90
46336;DHT22;31365;48.858;8.530;2022-10-03T21:35:46;10.00;99.90
46336;DHT22;31365;48.858;8.530;2022-10-03T21:38:23;10.10;99.90
46336;DHT22;31365;48.858;8.530;2022-10-03T21:41:15;10.00;99.90
46336;DHT22;31365;48.858;8.530;2022-10-03T21:43:53;10.10;99.90
46336;DHT22;31365;48.858;8.530;2022-10-03T21:46:32;10.00;99.90
46336;DHT22;31365;48.858;8.530;2022-10-03T21:49:23;10.10;99.90
46336;DHT22;31365;48.858;8.530;2022-10-03T21:52:16;10.10;99.90
46336;DHT22;31365;48.858;8.530;2022-10-03T21:55:06;10.00;99.90
46336;DHT22;31365;48.858;8.530;2022-10-03T21:58:18;10.10;99.90
46336;DHT22;31365;48.858;8.530;2022-10-03T22:01:08;10.00;99.90
46336;DHT22;31365;48.858;8.530;2022-10-03T22:03:48;10.00;99.90
46336;DHT22;31365;48.858;8.530;2022-10-03T22:06:23;10.00;99.90
46336;DHT22;31365;48.858;8.530;2022-10-03T22:09:00;10.00;99.90
46336;DHT22;31365;48.858;8.530;2022-10-03T22:11:38;9.90;99.90
46336;DHT22;31365;48.858;8.530;2022-10-03T22:14:21;9.90;99.90
46336;DHT22;31365;48.858;8.530;2022-10-03T22:17:04;9.80;99.90
46336;DHT22;31365;48.858;8.530;2022-10-03T22:19:45;9.80;99.90
46336;DHT22;31365;48.858;8.530;2022-10-03T22:22:27;9.70;99.90
46336;DHT22;31365;48.858;8.530;2022-10-03T22:25:11;9.60;99.90
46336;DHT22;31365;48.858;8.530;2022-10-03T22:28:01;9.50;99.90
46336;DHT22;31365;48.858;8.530;2022-10-03T22:30:40;9.50;99.90
46336;DHT22;31365;48.858;8.530;2022-10-03T22:33:20;9.50;99.90
46336;DHT22;31365;48.858;8.530;2022-10-03T22:35:54;9.50;99.90
46336;DHT22;31365;48.858;8.530;2022-10-03T22:38:30;9.50;99.90
46336;DHT22;31365;48.858;8.530;2022-10-03T22:41:04;9.50;99.90
46336;DHT22;31365;48.858;8.530;2022-10-03T22:43:38;9.40;99.90
46336;DHT22;31365;48.858;8.530;2022-10-03T22:46:11;9.40;99.90
46336;DHT22;31365;48.858;8.530;2022-10-03T22:48:47;9.40;99.90
46336;DHT22;31365;48.858;8.530;2022-10-03T22:51:18;9.40;99.90
46336;DHT22;31365;48.858;8.530;2022-10-03T22:54:12;9.30;99.90
46336;DHT22;31365;48.858;8.530;2022-10-03T22:56:46;9.20;99.90
46336;DHT22;31365;48.858;8.530;2022-10-03T22:59:23;9.20;99.90
46336;DHT22;31365;48.858;8.530;2022-10-03T23:01:57;9.10;99.90
46336;DHT22;31365;48.858;8.530;2022-10-03T23:04:31;9.00;99.90
46336;DHT22;31365;48.858;8.530;2022-10-03T23:07:13;9.00;99.90
46336;DHT22;31365;48.858;8.530;2022-10-03T23:10:07;8.90;99.90
46336;DHT22;31365;48.858;8.530;2022-10-03T23:12:48;8.80;99.90
46336;DHT22;31365;48.858;8.530;2022-10-03T23:15:25;8.70;99.90
46336;DHT22;31365;48.858;8.530;2022-10-03T23:21:03;8.70;99.90
46336;DHT22;31365;48.858;8.530;2022-10-03T23:23:38;8.60;99.90
46336;DHT22;31365;48.858;8.530;2022-10-03T23:26:44;8.60;99.90
46336;DHT22;31365;48.858;8.530;2022-10-03T23:29:22;8.60;99.90
46336;DHT22;31365;48.858;8.530;2022-10-03T23:32:00;8.60;99.90
46336;DHT22;31365;48.858;8.530;2022-10-03T23:35:06;8.50;99.90
46336;DHT22;31365;48.858;8.530;2022-10-03T23:37:43;8.50;99.90
46336;DHT22;31365;48.858;8.530;2022-10-03T23:43:25;8.50;99.90
46336;DHT22;31365;48.858;8.530;2022-10-03T23:45:58;8.50;99.90
46336;DHT22;31365;48.858;8.530;2022-10-03T23:48:38;8.40;99.90
46336;DHT22;31365;48.858;8.530;2022-10-03T23:51:13;8.40;99.90
46336;DHT22;31365;48.858;8.530;2022-10-03T23:53:47;8.30;99.90
46336;DHT22;31365;48.858;8.530;2022-10-03T23:56:34;8.30;99.90
46336;DHT22;31365;48.858;8.530;2022-10-03T23:59:17;8.20;99.90
